Darstellungsparameter: Aktuell verwendete Einstellungen:
Skalierung der Graphiken ... ?
xyx+y,   Skalierungsfaktor:      Skalierung: Modus: x, Faktor: 1
Darstellungszeitraum ... ?
Vom - - bis: - -   Zeitraum: 01.03.2011 - 01.03.2011
Min/Max/Avg-Anzeige ... ?
Zeige MMA aktuell
Zeige MMA Monat
Zeige MMA alles
Zeige --A aktuell
Zeige --A Monat
Zeige --A alles
Keine MMA-Anzeige
MMA:
Average (ber die Originaldaten)
MMA-Basis: 01.03.2011 - 01.03.2011
Quicknavigation für Darstellung... ?
Tage:      1T, 2T, 3T, 5T -1T -2T -3T -5T +1T +2T +3T +5T
Wochen: 1W, 2W, 3W -1W -2W -3W +1W +2W +3W
Monate: 1M, 3M, 6M -1M -3M -6M +1M +3M +6M
Jahre:    1J, 3J, 5J, 10J -1J -3J -5J -10J +1J +3J +5J +10J
Nutze für die Darstellung ... ?
Originaldaten oder Mittelwerte auf ...
Stundenbasis Tagesbasis Wochenbasis
Monatsbasis Jahresbasis      Datenbasis: Original-Daten
Darstellen als:
Statistik (Auto) Statistik J:M      Darstellung:
Zur Graphik,    zurück zur Übersicht aller Sensoren.
 
Tabellarische Datenbersicht: ?
 
Sensor: Nr:Datum:Temp:Abs-Feuchte:Windchill:Wind:
Aussen-T/F 1 01-03-2011 00:01:02 0.7 C 4.47 g/m*3 0.7 C 0 km/h
2 01-03-2011 00:13:02 0.6 C 4.44 g/m*3 0.6 C 0 km/h
3 01-03-2011 00:25:02 0.6 C 4.44 g/m*3 0.6 C 0 km/h
4 01-03-2011 00:37:02 0.4 C 4.38 g/m*3 0.4 C 0 km/h
5 01-03-2011 00:49:03 0.4 C 4.38 g/m*3 0.4 C 0 km/h
6 01-03-2011 01:01:03 0.1 C 4.24 g/m*3 0.1 C 0 km/h
7 01-03-2011 01:13:03 -0.3 C 4.13 g/m*3 -0.3 C 0 km/h
8 01-03-2011 01:25:03 -0.3 C 4.13 g/m*3 -0.3 C 0 km/h
9 01-03-2011 01:37:03 0.1 C 4.29 g/m*3 0.1 C 0 km/h
10 01-03-2011 01:49:03 -0.1 C 4.23 g/m*3 -0.1 C 0 km/h
11 01-03-2011 02:01:03 0 C 4.26 g/m*3 0 C 0 km/h
12 01-03-2011 02:13:03 0 C 4.26 g/m*3 0 C 0 km/h
13 01-03-2011 02:25:03 -0.3 C 4.18 g/m*3 -0.3 C 0 km/h
14 01-03-2011 02:37:03 0.1 C 4.34 g/m*3 0.1 C 0 km/h
15 01-03-2011 02:49:03 -0.3 C 4.22 g/m*3 -0.3 C 0 km/h
16 01-03-2011 03:01:03 -0.6 C 4.14 g/m*3 -0.6 C 0 km/h
17 01-03-2011 03:13:03 -0.8 C 4.08 g/m*3 -0.8 C 0 km/h
18 01-03-2011 03:25:03 -1 C 4.02 g/m*3 -1 C 0 km/h
19 01-03-2011 03:37:03 -0.9 C 4.05 g/m*3 -0.9 C 0 km/h
20 01-03-2011 03:49:03 -0.5 C 4.17 g/m*3 -0.5 C 0 km/h
21 01-03-2011 04:01:03 -0.9 C 4.05 g/m*3 -0.9 C 0 km/h
22 01-03-2011 04:13:03 -1.1 C 4 g/m*3 -1.1 C 0 km/h
23 01-03-2011 04:25:03 -0.8 C 4.08 g/m*3 -0.8 C 0 km/h
24 01-03-2011 04:37:03 -1.2 C 3.97 g/m*3 -1.2 C 0 km/h
25 01-03-2011 04:49:04 -1.2 C 3.97 g/m*3 -1.2 C 0 km/h
Sensor: Nr:Datum:Temp:Abs-Feuchte:Windchill:Wind:
Aussen-T/F 26 01-03-2011 05:01:04 -0.3 C 4.27 g/m*3 -0.3 C 0 km/h
27 01-03-2011 05:13:04 0.4 C 4.53 g/m*3 0.4 C 0 km/h
28 01-03-2011 05:25:04 0.6 C 4.6 g/m*3 0.6 C 0 km/h
29 01-03-2011 05:37:04 0.5 C 4.56 g/m*3 0.5 C 0 km/h
30 01-03-2011 05:49:04 0.5 C 4.56 g/m*3 0.5 C 0 km/h
31 01-03-2011 06:01:04 0.5 C 4.56 g/m*3 0.5 C 0 km/h
32 01-03-2011 06:13:04 0.5 C 4.56 g/m*3 0.5 C 0 km/h
33 01-03-2011 06:25:04 0.5 C 4.56 g/m*3 0.5 C 0 km/h
34 01-03-2011 06:37:04 0.5 C 4.56 g/m*3 0.5 C 0 km/h
35 01-03-2011 06:49:02 0.6 C 4.6 g/m*3 0.6 C 0 km/h
36 01-03-2011 07:01:01 0.6 C 4.6 g/m*3 0.6 C 0 km/h
37 01-03-2011 07:13:01 0.6 C 4.65 g/m*3 0.6 C 0 km/h
38 01-03-2011 07:25:02 0.6 C 4.65 g/m*3 0.6 C 0 km/h
39 01-03-2011 07:37:01 0.6 C 4.65 g/m*3 0.6 C 0 km/h
40 01-03-2011 07:49:02 0.7 C 4.68 g/m*3 0.7 C 0 km/h
41 01-03-2011 08:01:02 0.8 C 4.71 g/m*3 0.8 C 0 km/h
42 01-03-2011 08:13:02 1.1 C 4.76 g/m*3 1.1 C 0 km/h
43 01-03-2011 08:25:02 1.1 C 4.76 g/m*3 1.1 C 0 km/h
44 01-03-2011 08:37:02 1.1 C 4.76 g/m*3 1.1 C 0 km/h
45 01-03-2011 08:49:01 1.3 C 4.82 g/m*3 1.3 C 0 km/h
46 01-03-2011 09:01:02 1.6 C 4.92 g/m*3 1.6 C 0 km/h
47 01-03-2011 09:13:02 1.6 C 4.92 g/m*3 1.6 C 0 km/h
48 01-03-2011 09:25:01 1.8 C 4.93 g/m*3 1.8 C 0 km/h
49 01-03-2011 09:37:01 2 C 4.95 g/m*3 2 C 0 km/h
50 01-03-2011 09:49:01 2.2 C 4.96 g/m*3 2.2 C 0 km/h
Sensor: Nr:Datum:Temp:Abs-Feuchte:Windchill:Wind:
Aussen-T/F 51 01-03-2011 10:01:02 2.3 C 4.93 g/m*3 2.3 C 0 km/h
52 01-03-2011 10:13:02 2.2 C 4.73 g/m*3 2.2 C 0 km/h
53 01-03-2011 10:25:02 2.2 C 4.68 g/m*3 2.2 C 0 km/h
54 01-03-2011 10:37:01 2.5 C 4.71 g/m*3 2.5 C 0 km/h
55 01-03-2011 10:49:02 3 C 4.76 g/m*3 3 C 0 km/h
56 01-03-2011 11:01:01 3.5 C 4.86 g/m*3 3.5 C 0 km/h
57 01-03-2011 11:13:01 4.4 C 4.96 g/m*3 4.4 C 0 km/h
58 01-03-2011 11:25:02 4.4 C 4.77 g/m*3 4.4 C 0 km/h
59 01-03-2011 11:37:01 5.1 C 4.79 g/m*3 5.1 C 0 km/h
60 01-03-2011 11:49:02 5.3 C 4.78 g/m*3 5.3 C 0 km/h
61 01-03-2011 12:01:02 6.2 C 5 g/m*3 6.2 C 0 km/h
62 01-03-2011 12:13:02 6.7 C 4.94 g/m*3 6.7 C 0 km/h
63 01-03-2011 12:25:02 7.8 C 5.06 g/m*3 7.8 C 0 km/h
64 01-03-2011 12:37:02 8.4 C 4.75 g/m*3 8.4 C 0 km/h
65 01-03-2011 12:49:02 9.4 C 4.79 g/m*3 9.4 C 0 km/h
66 01-03-2011 13:01:02 9.4 C 4.61 g/m*3 9.4 C 0 km/h
67 01-03-2011 13:13:02 11.1 C 4.73 g/m*3 11.1 C 0 km/h
68 01-03-2011 13:25:01 10.6 C 4.59 g/m*3 10.6 C 0 km/h
69 01-03-2011 13:37:02 9.7 C 4.61 g/m*3 9.7 C 0 km/h
70 01-03-2011 13:49:03 9.1 C 4.7 g/m*3 9.1 C 0 km/h
71 01-03-2011 14:01:02 9.8 C 4.92 g/m*3 9.8 C 0 km/h
72 01-03-2011 14:13:02 10.4 C 4.82 g/m*3 10.4 C 0 km/h
73 01-03-2011 14:25:02 10.5 C 4.66 g/m*3 10.5 C 0 km/h
74 01-03-2011 14:37:02 11.2 C 4.66 g/m*3 11.2 C 0 km/h
75 01-03-2011 14:49:02 11.3 C 4.69 g/m*3 11.3 C 0 km/h
Sensor: Nr:Datum:Temp:Abs-Feuchte:Windchill:Wind:
Aussen-T/F 76 01-03-2011 15:01:01 12.2 C 4.75 g/m*3 12.2 C 0 km/h
77 01-03-2011 15:13:01 12.1 C 4.72 g/m*3 12.1 C 0 km/h
78 01-03-2011 15:25:02 12 C 4.69 g/m*3 12 C 0 km/h
79 01-03-2011 15:37:02 12.5 C 4.95 g/m*3 12.5 C 0 km/h
80 01-03-2011 15:49:02 14.7 C 3.9 g/m*3 14.7 C 0 km/h
81 01-03-2011 16:01:03 14.5 C 3.61 g/m*3 14.5 C 0 km/h
82 01-03-2011 16:13:03 14.6 C 3.5 g/m*3 14.6 C 0 km/h
83 01-03-2011 16:25:02 14.9 C 3.19 g/m*3 14.9 C 0 km/h
84 01-03-2011 16:37:02 15.4 C 3.15 g/m*3 15.4 C 0 km/h
85 01-03-2011 16:49:01 15.7 C 3.34 g/m*3 15.7 C 0 km/h
86 01-03-2011 17:01:01 14 C 3.14 g/m*3 14 C 0 km/h
87 01-03-2011 17:13:01 13.2 C 3.1 g/m*3 13.2 C 0 km/h
88 01-03-2011 17:25:01 12.6 C 3.32 g/m*3 12.6 C 0 km/h
89 01-03-2011 17:37:01 10.4 C 3.76 g/m*3 10.4 C 0 km/h
90 01-03-2011 17:49:01 8.9 C 3.94 g/m*3 8.9 C 0 km/h
91 01-03-2011 18:01:01 7.6 C 4.11 g/m*3 7.6 C 0 km/h
92 01-03-2011 18:13:01 7 C 3.72 g/m*3 7 C 0 km/h
93 01-03-2011 18:25:02 6.5 C 3.97 g/m*3 6.5 C 0 km/h
94 01-03-2011 18:37:01 6.9 C 4 g/m*3 6.9 C 0 km/h
95 01-03-2011 18:49:03 6.8 C 4.05 g/m*3 6.8 C 0 km/h
96 01-03-2011 19:01:02 6.5 C 4.12 g/m*3 6.5 C 0 km/h
97 01-03-2011 19:13:02 6.2 C 4.12 g/m*3 6.2 C 0 km/h
98 01-03-2011 19:25:02 5.8 C 4.23 g/m*3 5.8 C 0 km/h
99 01-03-2011 19:37:02 5.1 C 4.24 g/m*3 5.1 C 0 km/h
100 01-03-2011 19:49:02 4.6 C 4.17 g/m*3 4.6 C 0 km/h
Sensor: Nr:Datum:Temp:Abs-Feuchte:Windchill:Wind:
Aussen-T/F 101 01-03-2011 20:01:01 4.4 C 4.18 g/m*3 4.4 C 0 km/h
102 01-03-2011 20:13:01 4.7 C 4.26 g/m*3 4.7 C 0 km/h
103 01-03-2011 20:25:02 4.3 C 4.02 g/m*3 4.3 C 0 km/h
104 01-03-2011 20:37:02 4.4 C 4.05 g/m*3 4.4 C 0 km/h
105 01-03-2011 20:49:02 3.9 C 4.04 g/m*3 3.9 C 0 km/h
106 01-03-2011 21:01:03 3.6 C 3.96 g/m*3 3.6 C 0 km/h
107 01-03-2011 21:13:03 3.3 C 4.06 g/m*3 3.3 C 0 km/h
108 01-03-2011 21:25:02 2.5 C 3.91 g/m*3 2.5 C 0 km/h
109 01-03-2011 21:38:02 2.3 C 4.03 g/m*3 2.3 C 0 km/h
110 01-03-2011 21:50:02 2.4 C 4.05 g/m*3 2.4 C 0 km/h
111 01-03-2011 22:02:02 2 C 3.95 g/m*3 2 C 0 km/h
112 01-03-2011 22:14:02 3.2 C 3.92 g/m*3 3.2 C 0 km/h
113 01-03-2011 22:26:02 3.2 C 3.74 g/m*3 3.2 C 0 km/h
114 01-03-2011 22:38:02 3.5 C 3.63 g/m*3 3.5 C 0 km/h
115 01-03-2011 22:50:02 3.7 C 3.55 g/m*3 3.7 C 0 km/h
116 01-03-2011 23:02:02 3.5 C 3.57 g/m*3 3.5 C 0 km/h
117 01-03-2011 23:14:03 3.3 C 3.46 g/m*3 3.3 C 0 km/h
118 01-03-2011 23:26:03 3 C 3.45 g/m*3 3 C 0 km/h
119 01-03-2011 23:38:03 2.5 C 3.45 g/m*3 2.5 C 0 km/h
120 01-03-2011 23:50:03 1.8 C 3.51 g/m*3 1.8 C 0 km/h

Legende:
   Min
   Max


Maximal/Minimal-Werte vom 01.03.2011 - 01.03.2011

Sensor Min Max Avg
Temp
(Aussen-T/F)
-1.2 °C
01-03-2011  04:37:03
15.7 °C
01-03-2011  16:49:01
4.31 °C
Abs-Feuchte
(Aussen-T/F)
3.1 g/m*3
01-03-2011  17:13:01
5.06 g/m*3
01-03-2011  12:25:02
4.27 g/m*3
Windchill
(Aussen-T/F)
-1.2 C
01-03-2011  04:37:03
15.7 C
01-03-2011  16:49:01
4.28 C

Die Daten stammen von einer Davis Vantage Pro 2 Wetter-Station und werden unter Linux mit der Software wview2wettercgi und aufbereitet. Alle Angaben erfolgen ohne Gewähr für ihre Vollständigkeit oder Richtigkeit.
Kontakt: Rainer Krienke krienke@uni-koblenz.de . Meine Webseiten an der Uni Koblenz oder privat.
Version: $Revision: 0.78 $